Time;durP1;ratioP1;P1;durP2;ratioP2;P2;SDS_P1;SDS_P2;PMS_P1;PMS_P2;Temp;Humidity;BMP_temperature;BMP_pressure;BME280_temperature;BME280_humidity;BME280_pressure;Samples;Min_cycle;Max_cycle;Signal;HPM_P1;HPM_P2
2023/04/03 00:00:42;;;;;;;3.65;2.33;;;5.00;99.90;;;;;;4167544;28;20115;-68
2023/04/03 00:02:43;;;;;;;4.57;2.25;;;4.90;99.90;;;;;;4166822;28;20061;-68
2023/04/03 00:04:43;;;;;;;3.53;2.28;;;4.90;99.90;;;;;;4167189;28;20069;-69
2023/04/03 00:06:44;;;;;;;3.92;1.92;;;4.90;99.90;;;;;;4167835;28;20091;-68
2023/04/03 00:08:44;;;;;;;4.00;2.40;;;4.90;99.90;;;;;;4165158;28;20108;-69
2023/04/03 00:10:45;;;;;;;4.05;2.25;;;4.90;99.90;;;;;;4167753;28;20373;-69
2023/04/03 00:12:45;;;;;;;4.53;2.17;;;4.90;99.90;;;;;;4165834;28;20033;-69
2023/04/03 00:14:46;;;;;;;3.72;2.58;;;4.80;99.90;;;;;;4169273;28;20036;-69
2023/04/03 00:16:47;;;;;;;5.22;2.58;;;4.80;99.90;;;;;;4168645;28;20091;-68
2023/04/03 00:18:47;;;;;;;4.70;2.53;;;4.70;99.90;;;;;;4167925;28;21560;-69
2023/04/03 00:20:48;;;;;;;3.35;2.33;;;4.70;99.90;;;;;;4163741;28;20036;-69
2023/04/03 00:22:49;;;;;;;3.05;1.95;;;4.70;99.90;;;;;;4168850;28;20674;-68
2023/04/03 00:24:49;;;;;;;2.75;2.00;;;4.60;99.90;;;;;;4165625;28;20045;-68
2023/04/03 00:26:50;;;;;;;4.05;2.53;;;4.60;99.90;;;;;;4164830;28;20040;-68
2023/04/03 00:28:51;;;;;;;3.70;2.75;;;4.60;99.90;;;;;;4169832;28;20029;-69
2023/04/03 00:30:52;;;;;;;4.20;1.98;;;4.50;99.90;;;;;;4164214;28;20370;-68
2023/04/03 00:32:52;;;;;;;3.72;2.10;;;4.40;99.90;;;;;;4168356;28;20037;-69
2023/04/03 00:34:53;;;;;;;3.78;2.40;;;4.40;99.90;;;;;;4166682;28;20044;-68
2023/04/03 00:36:54;;;;;;;2.13;1.80;;;4.40;99.90;;;;;;4167991;28;20025;-68
2023/04/03 00:38:54;;;;;;;3.35;2.45;;;4.40;99.90;;;;;;4167689;28;20033;-69
2023/04/03 00:40:55;;;;;;;3.42;2.10;;;4.40;99.90;;;;;;4171253;28;20068;-69
2023/04/03 00:42:57;;;;;;;4.30;2.67;;;4.40;99.90;;;;;;4174173;28;20025;-69
2023/04/03 00:45:00;;;;;;;;;;;4.40;99.90;;;;;;4171417;28;20041;-68
2023/04/03 00:47:03;;;;;;;5.30;3.10;;;4.40;99.90;;;;;;4170949;28;19948;-69
2023/04/03 00:49:04;;;;;;;5.07;2.83;;;4.40;99.90;;;;;;4171563;28;20034;-68
2023/04/03 00:51:08;;;;;;;4.75;3.10;;;4.40;99.90;;;;;;4168597;28;20040;-68
2023/04/03 00:53:15;;;;;;;4.63;2.72;;;4.40;99.90;;;;;;4174448;28;20358;-69
2023/04/03 00:55:16;;;;;;;3.88;3.03;;;4.40;99.90;;;;;;4171313;28;20112;-68
2023/04/03 00:57:17;;;;;;;4.05;2.90;;;4.40;99.90;;;;;;4172389;28;20029;-69
2023/04/03 00:59:32;;;;;;;4.40;2.70;;;4.40;99.90;;;;;;4170944;28;20040;-68
2023/04/03 01:01:32;;;;;;;5.32;3.08;;;4.40;99.90;;;;;;4170411;28;20458;-69
2023/04/03 01:03:33;;;;;;;6.20;2.95;;;4.40;99.90;;;;;;4174386;28;20041;-69
2023/04/03 01:05:34;;;;;;;5.40;3.20;;;4.40;99.90;;;;;;4175496;28;20060;-67
2023/04/03 01:07:36;;;;;;;4.78;3.28;;;4.40;99.90;;;;;;4168667;28;20029;-68
2023/04/03 01:09:38;;;;;;;5.53;3.33;;;4.40;99.90;;;;;;4175550;28;20476;-68
2023/04/03 01:11:39;;;;;;;6.83;3.20;;;4.40;99.90;;;;;;4167683;28;20431;-68
2023/04/03 01:13:40;;;;;;;6.30;3.40;;;4.40;99.90;;;;;;4167545;28;20025;-68
2023/04/03 01:15:41;;;;;;;4.78;3.45;;;4.30;99.90;;;;;;4169066;28;20104;-69
2023/04/03 01:17:46;;;;;;;5.22;3.22;;;4.30;99.90;;;;;;4170188;28;20118;-68
2023/04/03 01:19:52;;;;;;;5.65;3.50;;;4.30;99.90;;;;;;4171989;28;20079;-68
2023/04/03 01:22:10;;;;;;;4.15;3.25;;;4.30;99.90;;;;;;4190324;28;20424;-68
2023/04/03 01:24:27;;;;;;;5.80;3.08;;;4.30;99.90;;;;;;4173794;28;20040;-69
2023/04/03 01:26:28;;;;;;;6.82;3.05;;;4.30;99.90;;;;;;4173045;28;20029;-68
2023/04/03 01:28:32;;;;;;;5.95;3.50;;;4.30;99.90;;;;;;4170414;28;20434;-69
2023/04/03 01:30:41;;;;;;;4.93;3.15;;;4.20;99.90;;;;;;4172557;28;20032;-69
2023/04/03 01:32:41;;;;;;;5.28;3.00;;;4.30;99.90;;;;;;4172932;28;20087;-69
2023/04/03 01:34:42;;;;;;;4.90;3.00;;;4.20;99.90;;;;;;4169408;28;20032;-69
2023/04/03 01:36:43;;;;;;;5.38;2.63;;;4.20;99.90;;;;;;4168265;28;20101;-68
2023/04/03 01:38:43;;;;;;;6.07;3.53;;;4.20;99.90;;;;;;4172466;28;20494;-68
2023/04/03 01:40:44;;;;;;;5.13;3.38;;;4.20;99.90;;;;;;4170956;28;20053;-68
2023/04/03 01:42:45;;;;;;;6.05;3.58;;;4.20;99.90;;;;;;4168268;28;20080;-68
2023/04/03 01:44:46;;;;;;;7.88;3.60;;;4.30;99.90;;;;;;4172711;28;20365;-69
2023/04/03 01:46:46;;;;;;;4.53;3.10;;;4.20;99.90;;;;;;4166751;28;20034;-69
2023/04/03 01:48:47;;;;;;;5.97;3.50;;;4.20;99.90;;;;;;4171196;28;20111;-68
2023/04/03 01:50:48;;;;;;;6.28;3.63;;;4.20;99.90;;;;;;4169747;28;20485;-69
2023/04/03 01:52:48;;;;;;;5.68;3.47;;;4.20;99.90;;;;;;4166369;28;20044;-69
2023/04/03 01:54:50;;;;;;;7.00;3.88;;;4.20;99.90;;;;;;4172500;28;20404;-69
2023/04/03 01:56:51;;;;;;;6.10;3.70;;;4.10;99.90;;;;;;4166575;28;20037;-69
2023/04/03 01:58:51;;;;;;;6.18;3.45;;;4.00;99.90;;;;;;4166299;28;20103;-69
2023/04/03 02:00:52;;;;;;;5.80;3.40;;;3.90;99.90;;;;;;4168381;28;20041;-70
2023/04/03 02:02:53;;;;;;;6.57;3.58;;;3.70;99.90;;;;;;4167717;28;20496;-69
2023/04/03 02:04:54;;;;;;;8.63;3.88;;;3.70;99.90;;;;;;4168876;28;20633;-69
2023/04/03 02:06:55;;;;;;;5.88;3.30;;;3.40;99.90;;;;;;4170184;28;20113;-69
2023/04/03 02:08:55;;;;;;;8.13;3.65;;;3.30;99.90;;;;;;4167853;28;20066;-69
2023/04/03 02:10:56;;;;;;;6.40;3.35;;;3.30;99.90;;;;;;4162945;28;20447;-69
2023/04/03 02:12:56;;;;;;;9.68;3.58;;;3.10;99.90;;;;;;4167994;28;20040;-69
2023/04/03 02:14:57;;;;;;;6.28;3.13;;;2.90;99.90;;;;;;4171131;28;20028;-69
2023/04/03 02:17:00;;;;;;;7.03;3.58;;;2.90;99.90;;;;;;4170614;28;20080;-69
2023/04/03 02:19:01;;;;;;;7.15;3.20;;;2.90;99.90;;;;;;4171063;28;20037;-68
2023/04/03 02:21:01;;;;;;;7.90;3.10;;;2.90;99.90;;;;;;4167184;28;20067;-69
2023/04/03 02:23:03;;;;;;;10.50;3.97;;;2.80;99.90;;;;;;4169002;28;20049;-69
2023/04/03 02:25:04;;;;;;;8.52;3.30;;;2.80;99.90;;;;;;4173247;28;20044;-70
2023/04/03 02:27:04;;;;;;;9.07;3.08;;;2.70;99.90;;;;;;4168755;28;20108;-69
2023/04/03 02:29:05;;;;;;;5.90;2.97;;;2.70;99.90;;;;;;4169239;28;20155;-69
2023/04/03 02:31:06;;;;;;;7.78;3.03;;;2.60;99.90;;;;;;4164854;28;20030;-69
2023/04/03 02:33:06;;;;;;;8.13;3.17;;;2.60;99.90;;;;;;4170603;28;20535;-68
2023/04/03 02:35:07;;;;;;;5.28;3.22;;;2.60;99.90;;;;;;4169291;28;20578;-68
2023/04/03 02:37:08;;;;;;;7.32;3.00;;;2.70;99.90;;;;;;4167482;28;20481;-68
2023/04/03 02:39:09;;;;;;;9.07;2.72;;;2.70;99.90;;;;;;4164835;28;20034;-68
2023/04/03 02:41:11;;;;;;;6.22;2.72;;;2.70;99.90;;;;;;4169207;28;20031;-69
2023/04/03 02:43:11;;;;;;;5.93;2.53;;;2.70;99.90;;;;;;4167888;28;20374;-69
2023/04/03 02:45:14;;;;;;;5.97;2.53;;;2.70;99.90;;;;;;4158591;28;20059;-68
2023/04/03 02:47:14;;;;;;;5.15;2.60;;;2.70;99.90;;;;;;4167448;28;20038;-68
2023/04/03 02:49:15;;;;;;;5.35;2.72;;;2.70;99.90;;;;;;4172740;28;20029;-69
2023/04/03 02:51:16;;;;;;;6.07;2.30;;;2.70;99.90;;;;;;4170944;28;20389;-68
2023/04/03 02:53:17;;;;;;;5.40;2.38;;;2.60;99.90;;;;;;4168051;28;20037;-69
2023/04/03 02:55:18;;;;;;;5.18;2.50;;;2.60;99.90;;;;;;4173084;28;20053;-68
2023/04/03 02:57:19;;;;;;;4.95;2.22;;;2.60;99.90;;;;;;4168780;28;20484;-68
2023/04/03 02:59:20;;;;;;;5.78;2.17;;;2.60;99.90;;;;;;4173961;28;20476;-68
2023/04/03 03:01:20;;;;;;;4.80;2.58;;;2.60;99.90;;;;;;4169774;28;20102;-68
2023/04/03 03:03:21;;;;;;;5.30;2.60;;;2.60;99.90;;;;;;4171637;28;20044;-69
2023/04/03 03:05:22;;;;;;;5.47;2.75;;;2.60;99.90;;;;;;4173286;28;20029;-69
2023/04/03 03:07:22;;;;;;;8.00;2.33;;;2.50;99.90;;;;;;4168697;28;20029;-68
2023/04/03 03:09:23;;;;;;;5.88;2.45;;;2.50;99.90;;;;;;4172964;28;20033;-69
2023/04/03 03:11:23;;;;;;;4.47;1.80;;;2.50;99.90;;;;;;4168310;28;20037;-69
2023/04/03 03:13:24;;;;;;;7.68;2.05;;;2.40;99.90;;;;;;4174755;28;20036;-68
2023/04/03 03:15:25;;;;;;;5.82;2.20;;;2.50;99.90;;;;;;4173343;28;20037;-68
2023/04/03 03:17:25;;;;;;;4.15;2.25;;;2.50;99.90;;;;;;4171286;28;20021;-69
2023/04/03 03:19:26;;;;;;;6.22;1.85;;;2.50;99.90;;;;;;4165345;28;20052;-69
2023/04/03 03:21:26;;;;;;;11.80;2.70;;;2.50;99.90;;;;;;4168499;28;20124;-69
2023/04/03 03:23:28;;;;;;;11.25;2.50;;;2.50;99.90;;;;;;4169021;28;20036;-69
2023/04/03 03:25:29;;;;;;;6.68;2.58;;;2.50;99.90;;;;;;4169489;28;20037;-69
2023/04/03 03:27:29;;;;;;;4.78;2.17;;;2.50;99.90;;;;;;4168151;28;20116;-69
2023/04/03 03:29:30;;;;;;;7.10;2.47;;;2.40;99.90;;;;;;4173897;28;20040;-69
2023/04/03 03:31:30;;;;;;;5.82;2.33;;;2.40;99.90;;;;;;4169064;28;20468;-69
2023/04/03 03:33:31;;;;;;;6.53;2.00;;;2.40;99.90;;;;;;4165507;28;20048;-69
2023/04/03 03:35:32;;;;;;;5.72;2.03;;;2.40;99.90;;;;;;4164473;28;20032;-69
2023/04/03 03:37:33;;;;;;;7.05;2.40;;;2.50;99.90;;;;;;4165186;28;20053;-69
2023/04/03 03:39:33;;;;;;;6.63;2.50;;;2.40;99.90;;;;;;4171820;28;20897;-69
2023/04/03 03:41:34;;;;;;;7.30;2.63;;;2.30;99.90;;;;;;4168019;28;20033;-69
2023/04/03 03:43:35;;;;;;;5.32;1.90;;;2.30;99.90;;;;;;4169336;28;20538;-69
2023/04/03 03:45:35;;;;;;;7.75;2.28;;;2.30;99.90;;;;;;4168640;28;20477;-69
2023/04/03 03:47:36;;;;;;;6.07;2.63;;;2.30;99.90;;;;;;4174175;28;20142;-69
2023/04/03 03:49:37;;;;;;;6.03;2.15;;;2.30;99.90;;;;;;4175536;28;20038;-69
2023/04/03 03:51:38;;;;;;;5.45;1.92;;;2.30;99.90;;;;;;4170318;28;20106;-69
2023/04/03 03:53:39;;;;;;;6.10;2.40;;;2.30;99.90;;;;;;4171184;28;20040;-67
2023/04/03 03:55:41;;;;;;;6.90;2.25;;;2.30;99.90;;;;;;4168627;28;20533;-68
2023/04/03 03:57:41;;;;;;;8.70;2.35;;;2.30;99.90;;;;;;4172156;28;20037;-69
2023/04/03 03:59:43;;;;;;;8.07;2.47;;;2.20;99.90;;;;;;4172300;28;20037;-69
2023/04/03 04:01:44;;;;;;;7.47;2.22;;;2.20;99.90;;;;;;4165944;28;20034;-69
2023/04/03 04:03:44;;;;;;;8.60;2.35;;;2.30;99.90;;;;;;4174850;28;20157;-67
2023/04/03 04:05:45;;;;;;;5.43;1.90;;;2.20;99.90;;;;;;4169556;28;20049;-68
2023/04/03 04:07:46;;;;;;;11.05;2.67;;;2.30;99.90;;;;;;4167820;28;20488;-68
2023/04/03 04:09:46;;;;;;;10.68;2.65;;;2.30;99.90;;;;;;4174620;28;20494;-68
2023/04/03 04:11:47;;;;;;;7.90;2.30;;;2.20;99.90;;;;;;4169834;28;20029;-69
2023/04/03 04:13:47;;;;;;;7.15;2.20;;;2.20;99.90;;;;;;4170265;28;20175;-68
2023/04/03 04:15:48;;;;;;;5.80;2.38;;;2.20;99.90;;;;;;4173877;28;20052;-69
2023/04/03 04:17:49;;;;;;;7.78;2.75;;;2.20;99.90;;;;;;4174887;28;20033;-68
2023/04/03 04:19:49;;;;;;;8.75;3.22;;;2.20;99.90;;;;;;4169492;28;20040;-69
2023/04/03 04:21:50;;;;;;;10.27;3.40;;;2.10;99.90;;;;;;4172400;28;20030;-69
2023/04/03 04:23:50;;;;;;;8.02;2.42;;;2.10;99.90;;;;;;4170843;28;20040;-68
2023/04/03 04:25:51;;;;;;;9.20;2.47;;;2.10;99.90;;;;;;4176161;28;20075;-69
2023/04/03 04:27:52;;;;;;;5.50;1.90;;;2.10;99.90;;;;;;4175078;28;20034;-70
2023/04/03 04:29:52;;;;;;;8.20;2.03;;;2.20;99.90;;;;;;4174120;28;20041;-69
2023/04/03 04:31:53;;;;;;;6.53;2.20;;;2.10;99.90;;;;;;4173230;28;20055;-68
2023/04/03 04:33:54;;;;;;;9.02;3.30;;;2.20;99.90;;;;;;4169929;28;20175;-69
2023/04/03 04:35:54;;;;;;;7.38;2.42;;;2.10;99.90;;;;;;4176724;28;20033;-68
2023/04/03 04:37:55;;;;;;;5.75;2.03;;;2.10;99.90;;;;;;4176133;28;20056;-68
2023/04/03 04:39:55;;;;;;;11.98;2.55;;;2.00;99.90;;;;;;4167240;28;20056;-69
2023/04/03 04:41:56;;;;;;;7.28;2.22;;;2.00;99.90;;;;;;4171675;28;20099;-69
2023/04/03 04:43:57;;;;;;;7.90;2.47;;;2.00;99.90;;;;;;4169051;28;20045;-69
2023/04/03 04:46:06;;;;;;;6.72;1.90;;;1.90;99.90;;;;;;4174687;28;20036;-69
2023/04/03 04:48:07;;;;;;;6.07;1.98;;;1.90;99.90;;;;;;4172064;28;20113;-69
2023/04/03 04:50:08;;;;;;;7.22;2.00;;;1.90;99.90;;;;;;4175843;28;20041;-69
2023/04/03 04:52:08;;;;;;;6.40;2.00;;;1.90;99.90;;;;;;4173539;28;20036;-68
2023/04/03 04:54:09;;;;;;;5.30;2.03;;;1.90;99.90;;;;;;4171308;28;20025;-69
2023/04/03 04:56:10;;;;;;;8.23;2.33;;;1.90;99.90;;;;;;4174671;28;20026;-68
2023/04/03 04:58:10;;;;;;;5.63;1.90;;;1.90;99.90;;;;;;4169849;28;20080;-67
2023/04/03 05:00:11;;;;;;;4.93;1.90;;;1.80;99.90;;;;;;4169591;28;20037;-70
2023/04/03 05:02:12;;;;;;;10.82;2.45;;;1.90;99.90;;;;;;4169095;28;20511;-68
2023/04/03 05:04:13;;;;;;;5.70;1.83;;;1.90;99.90;;;;;;4170609;28;20115;-68
2023/04/03 05:06:14;;;;;;;5.32;2.25;;;1.90;99.90;;;;;;4171211;28;20029;-68
2023/04/03 05:08:14;;;;;;;7.20;2.50;;;2.00;99.90;;;;;;4171424;28;20027;-68
2023/04/03 05:10:15;;;;;;;6.43;2.28;;;1.90;99.90;;;;;;4169804;28;20086;-69
2023/04/03 05:12:16;;;;;;;10.43;2.50;;;1.90;99.90;;;;;;4167841;28;20044;-68
2023/04/03 05:14:17;;;;;;;9.50;1.83;;;1.90;99.90;;;;;;4172965;28;20037;-68
2023/04/03 05:16:18;;;;;;;10.82;2.50;;;1.80;99.90;;;;;;4170216;28;20107;-69
2023/04/03 05:18:18;;;;;;;10.98;2.78;;;1.70;99.90;;;;;;4174041;28;20036;-69
2023/04/03 05:20:19;;;;;;;6.85;1.95;;;1.70;99.90;;;;;;4175903;28;20397;-69
2023/04/03 05:22:20;;;;;;;6.53;1.65;;;1.70;99.90;;;;;;4170836;28;20025;-69
2023/04/03 05:24:20;;;;;;;8.73;2.67;;;1.70;99.90;;;;;;4173443;28;20041;-69
2023/04/03 05:26:21;;;;;;;6.88;2.00;;;1.60;99.90;;;;;;4168240;28;20193;-68
2023/04/03 05:28:22;;;;;;;4.95;2.03;;;1.70;99.90;;;;;;4170717;28;20033;-68
2023/04/03 05:30:22;;;;;;;6.63;2.10;;;1.70;99.90;;;;;;4174561;28;20048;-69
2023/04/03 05:32:25;;;;;;;7.18;2.55;;;1.70;99.90;;;;;;4170193;28;20041;-69
2023/04/03 05:34:26;;;;;;;5.57;2.53;;;1.70;99.90;;;;;;4152213;28;20087;-69
2023/04/03 05:36:27;;;;;;;3.92;2.10;;;1.70;99.90;;;;;;4176110;28;20484;-68
2023/04/03 05:38:28;;;;;;;10.57;2.95;;;1.70;99.90;;;;;;4174724;28;20095;-69
2023/04/03 05:40:29;;;;;;;12.45;2.13;;;1.70;99.90;;;;;;4169845;28;20519;-69
2023/04/03 05:42:30;;;;;;;11.75;2.95;;;1.70;99.90;;;;;;4169132;28;20032;-68
2023/04/03 05:44:30;;;;;;;7.47;2.20;;;1.70;99.90;;;;;;4170844;28;20025;-69
2023/04/03 05:46:31;;;;;;;7.03;2.40;;;1.80;99.90;;;;;;4169583;28;20026;-69
2023/04/03 05:48:31;;;;;;;7.78;2.60;;;1.80;99.90;;;;;;4175185;28;20053;-69
2023/04/03 05:50:32;;;;;;;4.82;2.15;;;1.80;99.90;;;;;;4169224;28;20052;-68
2023/04/03 05:52:36;;;;;;;6.18;2.03;;;1.80;99.90;;;;;;4175208;28;20029;-68
2023/04/03 05:54:37;;;;;;;12.75;2.65;;;1.80;99.90;;;;;;4171443;28;20380;-68
2023/04/03 05:56:37;;;;;;;6.72;1.70;;;1.90;99.90;;;;;;4168149;28;20112;-68
2023/04/03 05:58:38;;;;;;;7.05;2.58;;;1.90;99.90;;;;;;4172596;28;20040;-69
2023/04/03 06:00:39;;;;;;;7.93;2.63;;;1.90;99.90;;;;;;4171212;28;20064;-69
2023/04/03 06:02:39;;;;;;;4.80;2.15;;;1.90;99.90;;;;;;4171731;28;20412;-69
2023/04/03 06:04:40;;;;;;;6.65;2.05;;;1.90;99.90;;;;;;4169776;28;20040;-68
2023/04/03 06:06:48;;;;;;;6.18;2.30;;;1.90;99.90;;;;;;4168024;28;20091;-69
2023/04/03 06:08:49;;;;;;;5.05;2.15;;;2.00;99.90;;;;;;4170185;28;20037;-68
2023/04/03 06:10:50;;;;;;;6.32;2.30;;;2.00;99.90;;;;;;4173788;28;20094;-68
2023/04/03 06:12:51;;;;;;;9.02;2.60;;;2.00;99.90;;;;;;4167215;28;20037;-69
2023/04/03 06:14:52;;;;;;;8.02;2.95;;;2.00;99.90;;;;;;4171907;28;20029;-69
2023/04/03 06:16:53;;;;;;;8.38;2.42;;;2.10;99.90;;;;;;4176958;28;20111;-69
2023/04/03 06:18:55;;;;;;;7.80;2.27;;;2.10;99.90;;;;;;4174921;28;20056;-68
2023/04/03 06:20:55;;;;;;;8.00;2.55;;;2.20;99.90;;;;;;4169223;28;20507;-69
2023/04/03 06:22:56;;;;;;;10.45;2.65;;;2.20;99.90;;;;;;4168409;28;20032;-69
2023/04/03 06:24:57;;;;;;;11.05;2.67;;;2.30;99.90;;;;;;4162783;28;20040;-68
2023/04/03 06:26:58;;;;;;;9.40;2.67;;;2.30;99.90;;;;;;4163568;28;20079;-68
2023/04/03 06:28:59;;;;;;;6.85;2.63;;;2.40;99.90;;;;;;4168229;28;20037;-68
2023/04/03 06:31:00;;;;;;;5.32;2.00;;;2.50;99.90;;;;;;4172747;28;20061;-69
2023/04/03 06:33:00;;;;;;;6.65;2.45;;;2.60;99.90;;;;;;4170038;28;20033;-68
2023/04/03 06:35:01;;;;;;;6.65;2.80;;;2.80;99.90;;;;;;4163071;28;20045;-68
2023/04/03 06:37:02;;;;;;;11.75;2.53;;;3.00;99.90;;;;;;4166191;28;20049;-68
2023/04/03 06:39:03;;;;;;;5.82;2.72;;;3.20;99.90;;;;;;4165796;28;20037;-69
2023/04/03 06:41:04;;;;;;;7.00;2.47;;;3.60;99.90;;;;;;4170484;28;20051;-68
2023/04/03 06:43:05;;;;;;;7.70;3.08;;;3.80;99.90;;;;;;4169367;28;20069;-68
2023/04/03 06:45:07;;;;;;;5.22;2.25;;;4.10;99.90;;;;;;4171304;28;20103;-70
2023/04/03 06:47:12;;;;;;;6.43;2.55;;;4.40;99.90;;;;;;4169343;28;20029;-69
2023/04/03 06:49:13;;;;;;;7.75;3.08;;;4.70;99.90;;;;;;4165900;28;20037;-68
2023/04/03 06:51:18;;;;;;;12.40;3.47;;;4.80;99.90;;;;;;4171366;28;20075;-68
2023/04/03 06:53:19;;;;;;;7.90;2.92;;;4.90;99.90;;;;;;4165745;28;20057;-67
2023/04/03 06:55:19;;;;;;;9.02;3.95;;;5.00;99.90;;;;;;4169540;28;20044;-69
2023/04/03 06:57:20;;;;;;;10.77;3.38;;;5.20;99.90;;;;;;4167740;28;20508;-69
2023/04/03 06:59:21;;;;;;;9.98;3.38;;;5.40;99.90;;;;;;4176865;28;20036;-67
2023/04/03 07:01:22;;;;;;;10.95;3.38;;;5.50;99.90;;;;;;4164680;28;20030;-68
2023/04/03 07:03:23;;;;;;;9.05;3.22;;;5.50;99.90;;;;;;4170040;28;20463;-69
2023/04/03 07:05:25;;;;;;;10.15;2.45;;;5.50;99.90;;;;;;4162976;28;20438;-69
2023/04/03 07:07:26;;;;;;;18.08;2.78;;;5.70;99.90;;;;;;4175311;28;20025;-69
2023/04/03 07:09:26;;;;;;;11.93;2.65;;;5.70;99.90;;;;;;4168329;28;20040;-70
2023/04/03 07:11:27;;;;;;;9.10;2.88;;;5.80;99.90;;;;;;4165053;28;20087;-69
2023/04/03 07:13:28;;;;;;;11.65;3.10;;;6.00;99.90;;;;;;4172543;28;20484;-69
2023/04/03 07:15:29;;;;;;;11.30;3.45;;;6.10;99.90;;;;;;4166237;28;20046;-69
2023/04/03 07:17:31;;;;;;;8.23;2.95;;;5.90;99.90;;;;;;4162496;28;20070;-69
2023/04/03 07:19:31;;;;;;;12.27;3.33;;;6.10;99.90;;;;;;4168172;28;20049;-69
2023/04/03 07:21:32;;;;;;;16.77;3.63;;;6.20;99.90;;;;;;4166075;28;20037;-68
2023/04/03 07:23:32;;;;;;;12.10;3.75;;;6.20;99.90;;;;;;4169894;28;20515;-69
2023/04/03 07:25:33;;;;;;;11.73;2.97;;;6.40;99.90;;;;;;4169543;28;20526;-69
2023/04/03 07:27:34;;;;;;;10.07;3.67;;;6.50;99.90;;;;;;4169832;28;20439;-68
2023/04/03 07:29:35;;;;;;;6.45;3.38;;;6.70;99.90;;;;;;4170216;28;20034;-69
2023/04/03 07:31:36;;;;;;;11.63;3.17;;;6.90;99.90;;;;;;4167787;28;20108;-69
2023/04/03 07:33:38;;;;;;;7.90;3.30;;;7.00;99.90;;;;;;4168763;28;20048;-69
2023/04/03 07:35:39;;;;;;;12.00;3.30;;;6.80;99.90;;;;;;4164151;28;20034;-69
2023/04/03 07:37:40;;;;;;;11.15;3.90;;;6.80;99.90;;;;;;4170175;28;20523;-69
2023/04/03 07:39:44;;;;;;;9.45;2.88;;;6.80;99.90;;;;;;4169836;28;20033;-69
2023/04/03 07:41:45;;;;;;;13.40;3.85;;;6.90;99.90;;;;;;4168834;28;20445;-69
2023/04/03 07:43:46;;;;;;;10.27;3.30;;;7.00;99.90;;;;;;4167222;28;20064;-69
2023/04/03 07:45:50;;;;;;;6.68;2.60;;;6.90;99.90;;;;;;4175468;28;20032;-69
2023/04/03 07:47:51;;;;;;;10.25;2.90;;;6.90;99.90;;;;;;4177507;28;20040;-70
2023/04/03 07:49:52;;;;;;;7.82;2.33;;;6.80;99.90;;;;;;4174358;28;20052;-69
2023/04/03 07:51:52;;;;;;;6.05;2.22;;;7.20;99.90;;;;;;4172912;28;20478;-69
2023/04/03 07:53:53;;;;;;;9.73;2.67;;;7.30;99.90;;;;;;4175813;28;20034;-69
2023/04/03 07:55:56;;;;;;;8.55;2.65;;;7.20;99.90;;;;;;4170223;28;20043;-70
2023/04/03 07:57:57;;;;;;;10.52;3.20;;;7.30;99.90;;;;;;4175017;28;20036;-69
2023/04/03 07:59:58;;;;;;;6.50;2.38;;;7.30;99.90;;;;;;4169975;28;20033;-69
2023/04/03 08:01:58;;;;;;;9.63;3.22;;;7.20;99.90;;;;;;4176704;28;20048;-69
2023/04/03 08:03:59;;;;;;;6.47;2.78;;;7.20;99.90;;;;;;4175365;28;20040;-69
2023/04/03 08:06:05;;;;;;;9.45;3.72;;;7.30;99.90;;;;;;4170582;28;20083;-69
2023/04/03 08:08:07;;;;;;;6.70;2.53;;;7.40;99.90;;;;;;4175255;28;20036;-69
2023/04/03 08:10:08;;;;;;;13.20;2.83;;;7.60;99.90;;;;;;4176996;28;20162;-70
2023/04/03 08:12:11;;;;;;;9.88;3.53;;;7.50;99.90;;;;;;4171513;28;20025;-69
2023/04/03 08:14:16;;;;;;;10.00;2.88;;;7.70;99.90;;;;;;4173503;28;20086;-69
2023/04/03 08:16:20;;;;;;;13.43;3.30;;;7.50;99.90;;;;;;4173319;28;20392;-69
2023/04/03 08:18:24;;;;;;;10.65;3.30;;;7.40;99.90;;;;;;4174138;28;20026;-69
2023/04/03 08:20:25;;;;;;;20.73;3.42;;;7.30;99.90;;;;;;4174956;28;20044;-68
2023/04/03 08:22:26;;;;;;;11.60;3.55;;;7.10;99.90;;;;;;4175129;28;20033;-69
2023/04/03 08:24:27;;;;;;;10.77;3.22;;;7.30;99.90;;;;;;4172889;28;20045;-69
2023/04/03 08:26:27;;;;;;;13.57;4.28;;;7.30;99.90;;;;;;4168910;28;20452;-69
2023/04/03 08:28:28;;;;;;;8.20;3.50;;;7.20;99.90;;;;;;4157422;28;20033;-69
2023/04/03 08:30:29;;;;;;;11.07;2.95;;;7.30;99.90;;;;;;4170101;28;20162;-69
2023/04/03 08:32:29;;;;;;;7.53;2.78;;;7.30;99.90;;;;;;4173537;28;20033;-69
2023/04/03 08:34:34;;;;;;;9.07;2.65;;;7.40;99.90;;;;;;4176226;28;20480;-69
2023/04/03 08:36:35;;;;;;;7.00;2.22;;;7.40;99.90;;;;;;4167885;28;20040;-69
2023/04/03 08:38:37;;;;;;;7.03;3.10;;;7.50;99.90;;;;;;4169321;28;20497;-69
2023/04/03 08:40:39;;;;;;;13.80;3.20;;;7.50;99.90;;;;;;4172487;28;20033;-68
2023/04/03 08:42:45;;;;;;;10.63;2.92;;;7.50;99.90;;;;;;4172010;28;20328;-68
2023/04/03 08:44:58;;;;;;;5.13;2.13;;;7.60;99.90;;;;;;4176043;28;20033;-68
2023/04/03 08:47:11;;;;;;;;;;;7.70;99.90;;;;;;4177115;28;20030;-68
2023/04/03 08:49:47;;;;;;;9.30;2.55;;;7.60;99.90;;;;;;4177278;28;20048;-69
2023/04/03 08:51:50;;;;;;;10.57;2.50;;;7.60;99.90;;;;;;4113137;28;20023;-68
2023/04/03 08:54:03;;;;;;;4.90;1.98;;;7.60;99.90;;;;;;4173549;28;20029;-69
2023/04/03 08:56:08;;;;;;;8.65;2.13;;;7.70;99.90;;;;;;4174745;28;20029;-69
2023/04/03 08:58:30;;;;;;;8.20;2.17;;;7.70;99.90;;;;;;4172757;28;20029;-68
2023/04/03 09:01:00;;;;;;;6.65;2.10;;;7.90;99.90;;;;;;4168168;28;20052;-68
2023/04/03 09:03:01;;;;;;;8.32;2.78;;;7.80;98.60;;;;;;4170238;28;20033;-69
2023/04/03 09:05:11;;;;;;;5.13;2.30;;;7.90;96.70;;;;;;4174276;28;20448;-68
2023/04/03 09:07:29;;;;;;;5.80;2.13;;;7.90;97.60;;;;;;4171546;28;20031;-69
2023/04/03 09:09:38;;;;;;;5.57;1.80;;;7.80;96.60;;;;;;4166643;28;20064;-68
2023/04/03 09:11:46;;;;;;;4.57;2.00;;;8.00;97.40;;;;;;4166418;28;20511;-68
2023/04/03 09:14:04;;;;;;;6.40;2.20;;;8.00;95.30;;;;;;4170046;28;20041;-68
2023/04/03 09:16:21;;;;;;;4.40;1.63;;;8.10;94.10;;;;;;4169952;28;20029;-68
2023/04/03 09:18:32;;;;;;;5.28;1.67;;;8.10;95.40;;;;;;4167868;28;20404;-67
2023/04/03 09:20:41;;;;;;;5.72;1.80;;;8.20;96.80;;;;;;4165162;28;20100;-68
2023/04/03 09:22:43;;;;;;;4.07;1.63;;;8.20;94.00;;;;;;4170987;28;20029;-68
2023/04/03 09:24:49;;;;;;;4.57;1.55;;;8.20;90.70;;;;;;4165183;28;20034;-68
2023/04/03 09:27:03;;;;;;;2.83;1.10;;;8.00;82.10;;;;;;4166684;28;20435;-68
2023/04/03 09:29:08;;;;;;;2.97;1.33;;;8.10;85.70;;;;;;4168240;28;20389;-68
2023/04/03 09:31:19;;;;;;;3.33;1.25;;;8.20;92.30;;;;;;4168508;28;20041;-68
2023/04/03 09:33:22;;;;;;;4.80;1.50;;;8.00;89.30;;;;;;4166958;28;20120;-68
2023/04/03 09:35:30;;;;;;;4.97;1.73;;;8.00;86.10;;;;;;4163181;28;20048;-68
2023/04/03 09:37:41;;;;;;;5.55;1.60;;;7.90;90.20;;;;;;4166060;28;20385;-68
2023/04/03 09:39:54;;;;;;;3.80;1.38;;;7.90;85.20;;;;;;4168358;28;20051;-68
2023/04/03 09:42:16;;;;;;;4.13;1.55;;;8.00;82.60;;;;;;4169827;28;20029;-68
2023/04/03 09:44:30;;;;;;;7.00;1.85;;;7.90;85.40;;;;;;4168409;28;20064;-68
2023/04/03 09:46:32;;;;;;;3.95;1.75;;;7.80;85.90;;;;;;4169793;28;20113;-68
2023/04/03 09:48:33;;;;;;;4.45;1.50;;;7.90;90.70;;;;;;4171443;28;20037;-68
2023/04/03 09:50:35;;;;;;;3.33;1.30;;;8.00;82.30;;;;;;4169827;28;20428;-68
2023/04/03 09:52:36;;;;;;;5.30;1.40;;;8.10;79.90;;;;;;4173594;28;20036;-68
2023/04/03 09:54:39;;;;;;;4.28;1.40;;;8.10;76.40;;;;;;4168810;28;20047;-67
2023/04/03 09:56:40;;;;;;;3.78;1.77;;;8.00;79.30;;;;;;4164839;28;20053;-67
2023/04/03 09:59:02;;;;;;;4.35;1.88;;;8.10;81.20;;;;;;4171397;28;20071;-68
2023/04/03 10:01:03;;;;;;;4.70;1.33;;;8.20;88.00;;;;;;4165581;28;20575;-68
2023/04/03 10:03:05;;;;;;;3.70;1.20;;;8.10;85.80;;;;;;4169906;28;20489;-67
2023/04/03 10:05:24;;;;;;;2.90;1.33;;;8.10;80.50;;;;;;4167789;28;20473;-70
2023/04/03 10:07:35;;;;;;;2.40;1.00;;;8.10;82.40;;;;;;4168480;28;20432;-68
2023/04/03 10:09:39;;;;;;;4.57;1.50;;;8.10;80.00;;;;;;4170261;28;20027;-67
2023/04/03 10:12:00;;;;;;;2.85;1.17;;;8.20;87.90;;;;;;4166476;28;20103;-67
2023/04/03 10:14:04;;;;;;;13.95;1.95;;;8.20;79.90;;;;;;4168900;28;20445;-67
2023/04/03 10:16:14;;;;;;;3.20;1.60;;;8.20;80.10;;;;;;4164862;28;20034;-68
2023/04/03 10:18:27;;;;;;;4.55;1.55;;;8.30;80.60;;;;;;4166605;28;20029;-67
2023/04/03 10:20:39;;;;;;;2.63;1.08;;;8.40;80.80;;;;;;4167378;28;20069;-67
2023/04/03 10:23:03;;;;;;;2.08;1.02;;;8.30;75.20;;;;;;4169292;28;20455;-67
2023/04/03 10:25:20;;;;;;;8.40;1.33;;;8.30;70.20;;;;;;4166221;28;20036;-67
2023/04/03 10:27:44;;;;;;;3.60;1.27;;;8.20;69.90;;;;;;4164782;28;20025;-68
2023/04/03 10:29:45;;;;;;;2.35;1.23;;;8.20;72.80;;;;;;4166528;28;20060;-67
2023/04/03 10:32:16;;;;;;;4.28;1.40;;;8.40;76.30;;;;;;4165139;28;20041;-67
2023/04/03 10:34:35;;;;;;;2.85;0.70;;;8.30;71.30;;;;;;4165390;28;20098;-67
2023/04/03 10:36:54;;;;;;;4.63;1.00;;;8.20;72.80;;;;;;4166048;28;20055;-67
2023/04/03 10:39:14;;;;;;;4.82;1.85;;;8.30;69.10;;;;;;4166655;28;20045;-67
2023/04/03 10:41:23;;;;;;;4.10;1.52;;;8.20;70.50;;;;;;4165186;28;20029;-67
2023/04/03 10:43:49;;;;;;;2.92;0.98;;;8.30;72.70;;;;;;4167246;28;20501;-67
2023/04/03 10:46:16;;;;;;;2.03;0.77;;;8.40;72.40;;;;;;4161324;28;20112;-68
2023/04/03 10:48:36;;;;;;;3.08;0.98;;;8.40;70.20;;;;;;4166819;28;20509;-67